sensor_id;sensor_type;location;lat;lon;timestamp;P1;durP1;ratioP1;P2;durP2;ratioP2
3341;SDS011;1684;50.748;6.154;2023-02-08T00:01:14;10.10;;;5.70;;
3341;SDS011;1684;50.748;6.154;2023-02-08T00:03:43;7.70;;;5.13;;
3341;SDS011;1684;50.748;6.154;2023-02-08T00:06:12;8.53;;;4.43;;
3341;SDS011;1684;50.748;6.154;2023-02-08T00:08:40;9.60;;;5.57;;
3341;SDS011;1684;50.748;6.154;2023-02-08T00:11:08;8.30;;;5.70;;
3341;SDS011;1684;50.748;6.154;2023-02-08T00:13:37;13.03;;;7.00;;
3341;SDS011;1684;50.748;6.154;2023-02-08T00:16:09;9.33;;;5.50;;
3341;SDS011;1684;50.748;6.154;2023-02-08T00:18:37;10.50;;;5.97;;
3341;SDS011;1684;50.748;6.154;2023-02-08T00:21:07;12.97;;;6.13;;
3341;SDS011;1684;50.748;6.154;2023-02-08T00:23:35;9.67;;;7.03;;
3341;SDS011;1684;50.748;6.154;2023-02-08T00:26:03;8.80;;;5.60;;
3341;SDS011;1684;50.748;6.154;2023-02-08T00:28:32;7.63;;;5.67;;
3341;SDS011;1684;50.748;6.154;2023-02-08T00:31:00;10.60;;;4.80;;
3341;SDS011;1684;50.748;6.154;2023-02-08T00:33:30;7.30;;;4.30;;
3341;SDS011;1684;50.748;6.154;2023-02-08T00:35:58;9.30;;;4.80;;
3341;SDS011;1684;50.748;6.154;2023-02-08T00:38:27;9.50;;;5.30;;
3341;SDS011;1684;50.748;6.154;2023-02-08T00:40:55;9.80;;;4.93;;
3341;SDS011;1684;50.748;6.154;2023-02-08T00:43:24;8.53;;;5.43;;
3341;SDS011;1684;50.748;6.154;2023-02-08T00:45:52;9.50;;;5.33;;
3341;SDS011;1684;50.748;6.154;2023-02-08T00:48:21;7.07;;;4.63;;
3341;SDS011;1684;50.748;6.154;2023-02-08T00:50:58;6.43;;;4.20;;
3341;SDS011;1684;50.748;6.154;2023-02-08T00:53:27;8.10;;;4.30;;
3341;SDS011;1684;50.748;6.154;2023-02-08T00:55:55;9.07;;;4.67;;
3341;SDS011;1684;50.748;6.154;2023-02-08T00:58:24;7.90;;;5.07;;
3341;SDS011;1684;50.748;6.154;2023-02-08T01:00:52;8.27;;;4.10;;
3341;SDS011;1684;50.748;6.154;2023-02-08T01:03:21;6.40;;;4.20;;
3341;SDS011;1684;50.748;6.154;2023-02-08T01:05:49;8.97;;;4.93;;
3341;SDS011;1684;50.748;6.154;2023-02-08T01:08:19;8.23;;;4.53;;
3341;SDS011;1684;50.748;6.154;2023-02-08T01:10:47;6.07;;;4.03;;
3341;SDS011;1684;50.748;6.154;2023-02-08T01:13:16;7.67;;;4.10;;
3341;SDS011;1684;50.748;6.154;2023-02-08T01:15:44;6.50;;;3.90;;
3341;SDS011;1684;50.748;6.154;2023-02-08T01:18:12;9.70;;;5.40;;
3341;SDS011;1684;50.748;6.154;2023-02-08T01:20:40;9.40;;;4.63;;
3341;SDS011;1684;50.748;6.154;2023-02-08T01:23:09;4.67;;;3.47;;
3341;SDS011;1684;50.748;6.154;2023-02-08T01:25:39;7.17;;;4.37;;
3341;SDS011;1684;50.748;6.154;2023-02-08T01:28:07;11.10;;;5.10;;
3341;SDS011;1684;50.748;6.154;2023-02-08T01:30:35;8.60;;;4.60;;
3341;SDS011;1684;50.748;6.154;2023-02-08T01:33:04;8.57;;;4.20;;
3341;SDS011;1684;50.748;6.154;2023-02-08T01:35:33;8.47;;;4.50;;
3341;SDS011;1684;50.748;6.154;2023-02-08T01:38:04;8.17;;;5.27;;
3341;SDS011;1684;50.748;6.154;2023-02-08T01:40:33;7.20;;;4.03;;
3341;SDS011;1684;50.748;6.154;2023-02-08T01:43:02;9.30;;;4.77;;
3341;SDS011;1684;50.748;6.154;2023-02-08T01:45:30;8.20;;;4.50;;
3341;SDS011;1684;50.748;6.154;2023-02-08T01:48:01;9.30;;;4.43;;
3341;SDS011;1684;50.748;6.154;2023-02-08T01:50:33;7.80;;;4.67;;
3341;SDS011;1684;50.748;6.154;2023-02-08T01:53:02;9.10;;;4.03;;
3341;SDS011;1684;50.748;6.154;2023-02-08T01:55:31;8.13;;;4.30;;
3341;SDS011;1684;50.748;6.154;2023-02-08T01:58:04;7.93;;;3.80;;
3341;SDS011;1684;50.748;6.154;2023-02-08T02:00:33;10.60;;;4.60;;
3341;SDS011;1684;50.748;6.154;2023-02-08T02:03:01;8.20;;;4.07;;
3341;SDS011;1684;50.748;6.154;2023-02-08T02:05:32;5.57;;;3.80;;
3341;SDS011;1684;50.748;6.154;2023-02-08T02:08:01;9.93;;;3.50;;
3341;SDS011;1684;50.748;6.154;2023-02-08T02:10:31;6.93;;;3.60;;
3341;SDS011;1684;50.748;6.154;2023-02-08T02:13:01;5.10;;;3.73;;
3341;SDS011;1684;50.748;6.154;2023-02-08T02:15:31;7.80;;;4.60;;
3341;SDS011;1684;50.748;6.154;2023-02-08T02:17:59;7.20;;;3.60;;
3341;SDS011;1684;50.748;6.154;2023-02-08T02:20:31;8.13;;;4.10;;
3341;SDS011;1684;50.748;6.154;2023-02-08T02:23:18;7.37;;;3.67;;
3341;SDS011;1684;50.748;6.154;2023-02-08T02:25:53;6.87;;;3.37;;
3341;SDS011;1684;50.748;6.154;2023-02-08T02:28:33;4.83;;;3.03;;
3341;SDS011;1684;50.748;6.154;2023-02-08T02:34:07;8.87;;;4.13;;
3341;SDS011;1684;50.748;6.154;2023-02-08T02:36:39;7.10;;;3.83;;
3341;SDS011;1684;50.748;6.154;2023-02-08T02:39:14;5.80;;;2.90;;
3341;SDS011;1684;50.748;6.154;2023-02-08T02:41:50;5.67;;;3.40;;
3341;SDS011;1684;50.748;6.154;2023-02-08T02:44:37;5.60;;;3.43;;
3341;SDS011;1684;50.748;6.154;2023-02-08T02:47:08;8.47;;;3.60;;
3341;SDS011;1684;50.748;6.154;2023-02-08T02:49:41;8.63;;;4.00;;
3341;SDS011;1684;50.748;6.154;2023-02-08T02:52:14;6.07;;;4.33;;
3341;SDS011;1684;50.748;6.154;2023-02-08T02:54:44;5.77;;;3.17;;
3341;SDS011;1684;50.748;6.154;2023-02-08T02:57:15;6.57;;;2.70;;
3341;SDS011;1684;50.748;6.154;2023-02-08T02:59:44;7.90;;;3.90;;
3341;SDS011;1684;50.748;6.154;2023-02-08T03:02:12;7.03;;;3.87;;
3341;SDS011;1684;50.748;6.154;2023-02-08T03:04:50;6.00;;;4.13;;
3341;SDS011;1684;50.748;6.154;2023-02-08T03:10:05;8.00;;;3.30;;
3341;SDS011;1684;50.748;6.154;2023-02-08T03:12:36;4.50;;;2.43;;
3341;SDS011;1684;50.748;6.154;2023-02-08T03:15:10;5.53;;;2.90;;
3341;SDS011;1684;50.748;6.154;2023-02-08T03:17:46;6.57;;;2.90;;
3341;SDS011;1684;50.748;6.154;2023-02-08T03:20:17;5.20;;;3.20;;
3341;SDS011;1684;50.748;6.154;2023-02-08T03:22:50;5.17;;;3.50;;
3341;SDS011;1684;50.748;6.154;2023-02-08T03:25:26;6.93;;;2.90;;
3341;SDS011;1684;50.748;6.154;2023-02-08T03:27:58;7.70;;;3.13;;
3341;SDS011;1684;50.748;6.154;2023-02-08T03:30:29;5.73;;;2.60;;
3341;SDS011;1684;50.748;6.154;2023-02-08T03:33:00;5.07;;;3.00;;
3341;SDS011;1684;50.748;6.154;2023-02-08T03:35:32;4.40;;;2.67;;
3341;SDS011;1684;50.748;6.154;2023-02-08T03:38:02;4.73;;;3.10;;
3341;SDS011;1684;50.748;6.154;2023-02-08T03:40:34;3.80;;;2.47;;
3341;SDS011;1684;50.748;6.154;2023-02-08T03:43:04;5.20;;;2.73;;
3341;SDS011;1684;50.748;6.154;2023-02-08T03:45:35;5.80;;;3.43;;
3341;SDS011;1684;50.748;6.154;2023-02-08T03:48:05;5.50;;;2.97;;
3341;SDS011;1684;50.748;6.154;2023-02-08T03:50:36;6.13;;;3.37;;
3341;SDS011;1684;50.748;6.154;2023-02-08T03:53:06;8.73;;;3.67;;
3341;SDS011;1684;50.748;6.154;2023-02-08T03:55:35;4.47;;;2.60;;
3341;SDS011;1684;50.748;6.154;2023-02-08T03:58:05;5.20;;;3.07;;
3341;SDS011;1684;50.748;6.154;2023-02-08T04:00:36;5.50;;;2.77;;
3341;SDS011;1684;50.748;6.154;2023-02-08T04:03:07;4.90;;;2.87;;
3341;SDS011;1684;50.748;6.154;2023-02-08T04:05:38;7.03;;;3.60;;
3341;SDS011;1684;50.748;6.154;2023-02-08T04:08:07;5.27;;;3.37;;
3341;SDS011;1684;50.748;6.154;2023-02-08T04:10:35;7.33;;;3.40;;
3341;SDS011;1684;50.748;6.154;2023-02-08T04:13:04;5.63;;;3.27;;
3341;SDS011;1684;50.748;6.154;2023-02-08T04:15:32;8.00;;;3.67;;
3341;SDS011;1684;50.748;6.154;2023-02-08T04:18:00;5.70;;;2.93;;
3341;SDS011;1684;50.748;6.154;2023-02-08T04:20:29;3.80;;;2.47;;
3341;SDS011;1684;50.748;6.154;2023-02-08T04:22:58;5.40;;;3.00;;
3341;SDS011;1684;50.748;6.154;2023-02-08T04:25:26;7.03;;;2.93;;
3341;SDS011;1684;50.748;6.154;2023-02-08T04:27:55;5.40;;;3.30;;
3341;SDS011;1684;50.748;6.154;2023-02-08T04:30:23;5.10;;;3.00;;
3341;SDS011;1684;50.748;6.154;2023-02-08T04:32:51;5.63;;;3.80;;
3341;SDS011;1684;50.748;6.154;2023-02-08T04:35:19;5.10;;;3.40;;
3341;SDS011;1684;50.748;6.154;2023-02-08T04:37:48;7.37;;;3.87;;
3341;SDS011;1684;50.748;6.154;2023-02-08T04:40:17;6.30;;;3.50;;
3341;SDS011;1684;50.748;6.154;2023-02-08T04:42:46;8.40;;;3.30;;
3341;SDS011;1684;50.748;6.154;2023-02-08T04:45:14;6.20;;;2.83;;
3341;SDS011;1684;50.748;6.154;2023-02-08T04:47:42;5.60;;;3.07;;
3341;SDS011;1684;50.748;6.154;2023-02-08T04:50:11;6.20;;;3.30;;
3341;SDS011;1684;50.748;6.154;2023-02-08T04:52:39;5.17;;;3.03;;
3341;SDS011;1684;50.748;6.154;2023-02-08T04:55:07;6.63;;;3.20;;
3341;SDS011;1684;50.748;6.154;2023-02-08T04:57:37;6.43;;;3.23;;
3341;SDS011;1684;50.748;6.154;2023-02-08T05:00:06;6.30;;;3.77;;
3341;SDS011;1684;50.748;6.154;2023-02-08T05:02:34;5.70;;;3.97;;
3341;SDS011;1684;50.748;6.154;2023-02-08T05:05:02;7.07;;;4.07;;
3341;SDS011;1684;50.748;6.154;2023-02-08T05:07:31;6.00;;;3.10;;
3341;SDS011;1684;50.748;6.154;2023-02-08T05:09:59;6.60;;;3.37;;
3341;SDS011;1684;50.748;6.154;2023-02-08T05:12:27;9.33;;;3.60;;
3341;SDS011;1684;50.748;6.154;2023-02-08T05:14:57;7.63;;;3.27;;
3341;SDS011;1684;50.748;6.154;2023-02-08T05:17:25;6.73;;;3.63;;
3341;SDS011;1684;50.748;6.154;2023-02-08T05:19:54;7.50;;;3.80;;
3341;SDS011;1684;50.748;6.154;2023-02-08T05:22:22;5.20;;;3.03;;
3341;SDS011;1684;50.748;6.154;2023-02-08T05:24:50;5.63;;;3.47;;
3341;SDS011;1684;50.748;6.154;2023-02-08T05:27:19;5.30;;;3.43;;
3341;SDS011;1684;50.748;6.154;2023-02-08T05:29:47;5.23;;;3.40;;
3341;SDS011;1684;50.748;6.154;2023-02-08T05:32:17;4.60;;;2.70;;
3341;SDS011;1684;50.748;6.154;2023-02-08T05:34:45;5.40;;;2.80;;
3341;SDS011;1684;50.748;6.154;2023-02-08T05:37:14;6.10;;;3.27;;
3341;SDS011;1684;50.748;6.154;2023-02-08T05:39:42;6.43;;;3.43;;
3341;SDS011;1684;50.748;6.154;2023-02-08T05:42:10;6.40;;;3.80;;
3341;SDS011;1684;50.748;6.154;2023-02-08T05:44:38;6.20;;;3.50;;
3341;SDS011;1684;50.748;6.154;2023-02-08T05:47:06;9.73;;;4.17;;
3341;SDS011;1684;50.748;6.154;2023-02-08T05:49:36;7.03;;;3.77;;
3341;SDS011;1684;50.748;6.154;2023-02-08T05:52:04;8.13;;;3.40;;
3341;SDS011;1684;50.748;6.154;2023-02-08T05:54:33;6.80;;;3.40;;
3341;SDS011;1684;50.748;6.154;2023-02-08T05:57:01;5.90;;;2.80;;
3341;SDS011;1684;50.748;6.154;2023-02-08T05:59:29;6.70;;;3.30;;
3341;SDS011;1684;50.748;6.154;2023-02-08T06:01:58;7.70;;;3.63;;
3341;SDS011;1684;50.748;6.154;2023-02-08T06:04:26;5.53;;;3.10;;
3341;SDS011;1684;50.748;6.154;2023-02-08T06:06:56;6.53;;;2.97;;
3341;SDS011;1684;50.748;6.154;2023-02-08T06:09:24;6.77;;;3.37;;
3341;SDS011;1684;50.748;6.154;2023-02-08T06:11:52;7.20;;;3.50;;
3341;SDS011;1684;50.748;6.154;2023-02-08T06:14:21;6.27;;;3.53;;
3341;SDS011;1684;50.748;6.154;2023-02-08T06:16:49;5.27;;;3.23;;
3341;SDS011;1684;50.748;6.154;2023-02-08T06:19:17;7.47;;;3.53;;
3341;SDS011;1684;50.748;6.154;2023-02-08T06:21:46;12.80;;;4.17;;
3341;SDS011;1684;50.748;6.154;2023-02-08T06:24:15;6.83;;;3.63;;
3341;SDS011;1684;50.748;6.154;2023-02-08T06:26:44;7.30;;;3.60;;
3341;SDS011;1684;50.748;6.154;2023-02-08T06:29:12;9.63;;;4.03;;
3341;SDS011;1684;50.748;6.154;2023-02-08T06:31:40;5.67;;;3.43;;
3341;SDS011;1684;50.748;6.154;2023-02-08T06:34:09;8.17;;;3.83;;
3341;SDS011;1684;50.748;6.154;2023-02-08T06:36:37;9.40;;;4.07;;
3341;SDS011;1684;50.748;6.154;2023-02-08T06:39:05;5.20;;;3.33;;
3341;SDS011;1684;50.748;6.154;2023-02-08T06:41:35;8.03;;;4.10;;
3341;SDS011;1684;50.748;6.154;2023-02-08T06:44:04;7.27;;;4.50;;
3341;SDS011;1684;50.748;6.154;2023-02-08T06:46:32;9.80;;;4.67;;
3341;SDS011;1684;50.748;6.154;2023-02-08T06:49:01;6.60;;;4.00;;
3341;SDS011;1684;50.748;6.154;2023-02-08T06:51:29;7.23;;;3.30;;
3341;SDS011;1684;50.748;6.154;2023-02-08T06:53:57;9.13;;;4.33;;
3341;SDS011;1684;50.748;6.154;2023-02-08T06:56:25;13.40;;;5.00;;
3341;SDS011;1684;50.748;6.154;2023-02-08T06:58:56;6.23;;;4.33;;
3341;SDS011;1684;50.748;6.154;2023-02-08T07:01:25;7.93;;;4.30;;
3341;SDS011;1684;50.748;6.154;2023-02-08T07:03:54;7.10;;;4.30;;
3341;SDS011;1684;50.748;6.154;2023-02-08T07:06:22;9.20;;;5.17;;
3341;SDS011;1684;50.748;6.154;2023-02-08T07:08:51;6.60;;;4.00;;
3341;SDS011;1684;50.748;6.154;2023-02-08T07:11:19;8.40;;;4.57;;
3341;SDS011;1684;50.748;6.154;2023-02-08T07:13:48;5.40;;;4.30;;
3341;SDS011;1684;50.748;6.154;2023-02-08T07:16:18;7.13;;;4.20;;
3341;SDS011;1684;50.748;6.154;2023-02-08T07:18:46;5.40;;;3.67;;
3341;SDS011;1684;50.748;6.154;2023-02-08T07:21:15;5.43;;;4.57;;
3341;SDS011;1684;50.748;6.154;2023-02-08T07:23:43;7.60;;;3.17;;
3341;SDS011;1684;50.748;6.154;2023-02-08T07:26:11;8.80;;;4.10;;
3341;SDS011;1684;50.748;6.154;2023-02-08T07:28:41;9.40;;;5.03;;
3341;SDS011;1684;50.748;6.154;2023-02-08T07:31:10;6.70;;;4.43;;
3341;SDS011;1684;50.748;6.154;2023-02-08T07:33:40;13.63;;;5.10;;
3341;SDS011;1684;50.748;6.154;2023-02-08T07:36:09;6.30;;;4.43;;
3341;SDS011;1684;50.748;6.154;2023-02-08T07:38:37;5.90;;;3.70;;
3341;SDS011;1684;50.748;6.154;2023-02-08T07:41:06;8.93;;;3.17;;
3341;SDS011;1684;50.748;6.154;2023-02-08T07:43:35;8.30;;;3.57;;
3341;SDS011;1684;50.748;6.154;2023-02-08T07:46:05;6.77;;;3.47;;
3341;SDS011;1684;50.748;6.154;2023-02-08T07:48:34;8.37;;;2.83;;
3341;SDS011;1684;50.748;6.154;2023-02-08T07:51:07;5.10;;;3.27;;
3341;SDS011;1684;50.748;6.154;2023-02-08T07:56:14;6.63;;;3.60;;
3341;SDS011;1684;50.748;6.154;2023-02-08T07:58:45;7.53;;;4.27;;
3341;SDS011;1684;50.748;6.154;2023-02-08T08:01:14;6.13;;;3.70;;
3341;SDS011;1684;50.748;6.154;2023-02-08T08:03:48;7.93;;;3.73;;
3341;SDS011;1684;50.748;6.154;2023-02-08T08:06:18;9.10;;;3.57;;
3341;SDS011;1684;50.748;6.154;2023-02-08T08:08:47;6.90;;;3.60;;
3341;SDS011;1684;50.748;6.154;2023-02-08T08:11:15;6.63;;;3.30;;
3341;SDS011;1684;50.748;6.154;2023-02-08T08:13:50;7.80;;;3.40;;
3341;SDS011;1684;50.748;6.154;2023-02-08T08:16:18;7.20;;;4.30;;
3341;SDS011;1684;50.748;6.154;2023-02-08T08:18:47;6.80;;;3.97;;
3341;SDS011;1684;50.748;6.154;2023-02-08T08:21:19;11.33;;;3.83;;
3341;SDS011;1684;50.748;6.154;2023-02-08T08:23:47;5.50;;;3.20;;
3341;SDS011;1684;50.748;6.154;2023-02-08T08:26:16;7.63;;;3.70;;
3341;SDS011;1684;50.748;6.154;2023-02-08T08:28:47;7.97;;;3.23;;
3341;SDS011;1684;50.748;6.154;2023-02-08T08:31:17;8.27;;;3.43;;
3341;SDS011;1684;50.748;6.154;2023-02-08T08:33:46;23.10;;;5.47;;
3341;SDS011;1684;50.748;6.154;2023-02-08T08:36:15;6.20;;;3.63;;
3341;SDS011;1684;50.748;6.154;2023-02-08T08:38:44;6.70;;;3.20;;
3341;SDS011;1684;50.748;6.154;2023-02-08T08:41:14;6.10;;;3.90;;
3341;SDS011;1684;50.748;6.154;2023-02-08T08:43:43;11.67;;;4.20;;
3341;SDS011;1684;50.748;6.154;2023-02-08T08:46:20;21.80;;;6.00;;
3341;SDS011;1684;50.748;6.154;2023-02-08T08:48:49;6.47;;;3.30;;
3341;SDS011;1684;50.748;6.154;2023-02-08T08:51:18;11.00;;;3.67;;
3341;SDS011;1684;50.748;6.154;2023-02-08T08:54:01;8.60;;;4.50;;
3341;SDS011;1684;50.748;6.154;2023-02-08T08:56:29;7.30;;;4.20;;
3341;SDS011;1684;50.748;6.154;2023-02-08T08:59:05;9.73;;;3.57;;
3341;SDS011;1684;50.748;6.154;2023-02-08T09:01:33;6.80;;;3.20;;
3341;SDS011;1684;50.748;6.154;2023-02-08T09:04:02;5.53;;;3.27;;
3341;SDS011;1684;50.748;6.154;2023-02-08T09:06:30;6.50;;;3.43;;
3341;SDS011;1684;50.748;6.154;2023-02-08T09:09:01;6.30;;;3.37;;
3341;SDS011;1684;50.748;6.154;2023-02-08T09:11:30;8.27;;;4.10;;
3341;SDS011;1684;50.748;6.154;2023-02-08T09:14:05;8.67;;;3.67;;
3341;SDS011;1684;50.748;6.154;2023-02-08T09:16:39;5.00;;;2.73;;
3341;SDS011;1684;50.748;6.154;2023-02-08T09:19:08;6.20;;;3.47;;
3341;SDS011;1684;50.748;6.154;2023-02-08T09:21:38;5.27;;;3.67;;
3341;SDS011;1684;50.748;6.154;2023-02-08T09:24:07;6.60;;;3.63;;
3341;SDS011;1684;50.748;6.154;2023-02-08T09:26:36;7.40;;;4.20;;
3341;SDS011;1684;50.748;6.154;2023-02-08T09:29:12;8.37;;;4.40;;
3341;SDS011;1684;50.748;6.154;2023-02-08T09:31:40;11.13;;;4.40;;
3341;SDS011;1684;50.748;6.154;2023-02-08T09:34:09;8.53;;;4.50;;
3341;SDS011;1684;50.748;6.154;2023-02-08T09:36:38;9.50;;;5.07;;
3341;SDS011;1684;50.748;6.154;2023-02-08T09:39:10;6.90;;;3.10;;
3341;SDS011;1684;50.748;6.154;2023-02-08T09:41:54;7.03;;;4.30;;
3341;SDS011;1684;50.748;6.154;2023-02-08T09:44:26;5.60;;;3.40;;
3341;SDS011;1684;50.748;6.154;2023-02-08T09:47:01;7.07;;;4.00;;
3341;SDS011;1684;50.748;6.154;2023-02-08T09:49:31;7.00;;;3.70;;
3341;SDS011;1684;50.748;6.154;2023-02-08T09:52:02;9.10;;;4.83;;
3341;SDS011;1684;50.748;6.154;2023-02-08T09:54:34;11.10;;;5.13;;
3341;SDS011;1684;50.748;6.154;2023-02-08T09:57:09;8.03;;;4.40;;
3341;SDS011;1684;50.748;6.154;2023-02-08T09:59:38;8.00;;;3.67;;
3341;SDS011;1684;50.748;6.154;2023-02-08T10:02:11;7.50;;;3.50;;
3341;SDS011;1684;50.748;6.154;2023-02-08T10:04:45;5.97;;;3.77;;
3341;SDS011;1684;50.748;6.154;2023-02-08T10:07:18;9.10;;;3.50;;
3341;SDS011;1684;50.748;6.154;2023-02-08T10:09:48;3.90;;;2.73;;
3341;SDS011;1684;50.748;6.154;2023-02-08T10:12:17;5.27;;;3.00;;
3341;SDS011;1684;50.748;6.154;2023-02-08T10:14:56;7.23;;;4.37;;
3341;SDS011;1684;50.748;6.154;2023-02-08T10:17:42;14.20;;;4.40;;
3341;SDS011;1684;50.748;6.154;2023-02-08T10:20:19;9.83;;;4.80;;
3341;SDS011;1684;50.748;6.154;2023-02-08T10:22:54;7.60;;;3.97;;
3341;SDS011;1684;50.748;6.154;2023-02-08T10:25:29;5.03;;;3.47;;
3341;SDS011;1684;50.748;6.154;2023-02-08T10:28:09;9.87;;;5.03;;
3341;SDS011;1684;50.748;6.154;2023-02-08T10:30:43;6.17;;;3.50;;
3341;SDS011;1684;50.748;6.154;2023-02-08T10:33:16;7.20;;;3.90;;
3341;SDS011;1684;50.748;6.154;2023-02-08T10:35:47;7.27;;;3.43;;
3341;SDS011;1684;50.748;6.154;2023-02-08T10:38:23;7.13;;;3.17;;
3341;SDS011;1684;50.748;6.154;2023-02-08T10:41:12;7.03;;;4.03;;
3341;SDS011;1684;50.748;6.154;2023-02-08T10:43:51;9.87;;;5.40;;
3341;SDS011;1684;50.748;6.154;2023-02-08T10:46:24;6.50;;;3.53;;
3341;SDS011;1684;50.748;6.154;2023-02-08T10:49:02;8.70;;;4.87;;
3341;SDS011;1684;50.748;6.154;2023-02-08T10:51:36;8.23;;;3.87;;
3341;SDS011;1684;50.748;6.154;2023-02-08T10:54:05;5.83;;;3.30;;
3341;SDS011;1684;50.748;6.154;2023-02-08T10:56:42;6.70;;;3.60;;
3341;SDS011;1684;50.748;6.154;2023-02-08T10:59:16;11.90;;;4.60;;
3341;SDS011;1684;50.748;6.154;2023-02-08T11:01:46;6.33;;;3.53;;
3341;SDS011;1684;50.748;6.154;2023-02-08T11:04:18;9.30;;;5.43;;
3341;SDS011;1684;50.748;6.154;2023-02-08T11:06:47;4.20;;;2.90;;
3341;SDS011;1684;50.748;6.154;2023-02-08T11:09:25;11.00;;;5.83;;
3341;SDS011;1684;50.748;6.154;2023-02-08T11:12:01;12.00;;;5.67;;
3341;SDS011;1684;50.748;6.154;2023-02-08T11:14:33;8.90;;;4.73;;
3341;SDS011;1684;50.748;6.154;2023-02-08T11:17:23;9.90;;;5.60;;
3341;SDS011;1684;50.748;6.154;2023-02-08T11:19:55;10.77;;;4.97;;
3341;SDS011;1684;50.748;6.154;2023-02-08T11:22:24;16.40;;;6.53;;
3341;SDS011;1684;50.748;6.154;2023-02-08T11:24:57;8.50;;;4.63;;
3341;SDS011;1684;50.748;6.154;2023-02-08T11:27:31;10.60;;;6.00;;
3341;SDS011;1684;50.748;6.154;2023-02-08T11:30:09;8.10;;;4.33;;
3341;SDS011;1684;50.748;6.154;2023-02-08T11:32:44;8.20;;;4.90;;
3341;SDS011;1684;50.748;6.154;2023-02-08T11:35:18;9.67;;;5.07;;
3341;SDS011;1684;50.748;6.154;2023-02-08T11:37:47;8.03;;;3.50;;
3341;SDS011;1684;50.748;6.154;2023-02-08T11:40:22;7.10;;;1.57;;
3341;SDS011;1684;50.748;6.154;2023-02-08T11:42:53;15.30;;;6.00;;
3341;SDS011;1684;50.748;6.154;2023-02-08T11:45:24;10.50;;;5.20;;
3341;SDS011;1684;50.748;6.154;2023-02-08T11:47:53;3.70;;;2.03;;
3341;SDS011;1684;50.748;6.154;2023-02-08T11:50:25;12.90;;;5.80;;
3341;SDS011;1684;50.748;6.154;2023-02-08T11:52:55;11.40;;;6.50;;
3341;SDS011;1684;50.748;6.154;2023-02-08T11:55:25;6.30;;;3.63;;
3341;SDS011;1684;50.748;6.154;2023-02-08T11:57:56;10.40;;;5.30;;
3341;SDS011;1684;50.748;6.154;2023-02-08T12:00:26;6.07;;;4.57;;
3341;SDS011;1684;50.748;6.154;2023-02-08T12:02:55;6.90;;;4.00;;
3341;SDS011;1684;50.748;6.154;2023-02-08T12:05:28;8.70;;;6.60;;
3341;SDS011;1684;50.748;6.154;2023-02-08T12:08:02;7.73;;;4.03;;
3341;SDS011;1684;50.748;6.154;2023-02-08T12:10:42;11.47;;;7.00;;
3341;SDS011;1684;50.748;6.154;2023-02-08T12:13:24;6.03;;;3.97;;
3341;SDS011;1684;50.748;6.154;2023-02-08T12:16:01;7.80;;;4.00;;
3341;SDS011;1684;50.748;6.154;2023-02-08T12:18:40;11.33;;;6.67;;
3341;SDS011;1684;50.748;6.154;2023-02-08T12:21:11;10.37;;;6.37;;
3341;SDS011;1684;50.748;6.154;2023-02-08T12:23:45;15.17;;;7.80;;
3341;SDS011;1684;50.748;6.154;2023-02-08T12:26:19;13.70;;;7.93;;
3341;SDS011;1684;50.748;6.154;2023-02-08T12:28:59;6.07;;;3.33;;
3341;SDS011;1684;50.748;6.154;2023-02-08T12:31:34;5.13;;;1.90;;
3341;SDS011;1684;50.748;6.154;2023-02-08T12:34:07;2.97;;;2.00;;
3341;SDS011;1684;50.748;6.154;2023-02-08T12:36:47;4.73;;;2.70;;
3341;SDS011;1684;50.748;6.154;2023-02-08T12:39:38;3.30;;;2.00;;
3341;SDS011;1684;50.748;6.154;2023-02-08T12:42:32;2.70;;;1.60;;
3341;SDS011;1684;50.748;6.154;2023-02-08T12:45:08;3.87;;;1.50;;
3341;SDS011;1684;50.748;6.154;2023-02-08T12:47:49;3.10;;;1.43;;
3341;SDS011;1684;50.748;6.154;2023-02-08T12:50:31;2.73;;;1.37;;
3341;SDS011;1684;50.748;6.154;2023-02-08T12:53:01;3.10;;;1.90;;
3341;SDS011;1684;50.748;6.154;2023-02-08T12:55:32;2.50;;;1.37;;
3341;SDS011;1684;50.748;6.154;2023-02-08T12:58:03;1.97;;;1.30;;
3341;SDS011;1684;50.748;6.154;2023-02-08T13:00:35;2.27;;;1.50;;
3341;SDS011;1684;50.748;6.154;2023-02-08T13:03:05;3.53;;;1.80;;
3341;SDS011;1684;50.748;6.154;2023-02-08T13:05:38;3.70;;;1.57;;
3341;SDS011;1684;50.748;6.154;2023-02-08T13:08:26;2.73;;;1.30;;
3341;SDS011;1684;50.748;6.154;2023-02-08T13:10:57;3.50;;;1.43;;
3341;SDS011;1684;50.748;6.154;2023-02-08T13:13:44;2.17;;;1.13;;
3341;SDS011;1684;50.748;6.154;2023-02-08T13:16:19;3.17;;;1.37;;
3341;SDS011;1684;50.748;6.154;2023-02-08T13:19:06;2.57;;;1.53;;
3341;SDS011;1684;50.748;6.154;2023-02-08T13:21:39;6.63;;;2.20;;
3341;SDS011;1684;50.748;6.154;2023-02-08T13:24:12;3.10;;;1.40;;
3341;SDS011;1684;50.748;6.154;2023-02-08T13:26:44;3.20;;;1.40;;
3341;SDS011;1684;50.748;6.154;2023-02-08T13:29:14;3.60;;;1.83;;
3341;SDS011;1684;50.748;6.154;2023-02-08T13:31:47;5.17;;;2.63;;
3341;SDS011;1684;50.748;6.154;2023-02-08T13:34:17;5.17;;;1.70;;
3341;SDS011;1684;50.748;6.154;2023-02-08T13:36:50;6.20;;;3.27;;
3341;SDS011;1684;50.748;6.154;2023-02-08T13:39:25;7.47;;;4.50;;
3341;SDS011;1684;50.748;6.154;2023-02-08T13:41:55;8.30;;;4.63;;
3341;SDS011;1684;50.748;6.154;2023-02-08T13:44:25;6.10;;;4.07;;
3341;SDS011;1684;50.748;6.154;2023-02-08T13:46:58;11.40;;;6.80;;
3341;SDS011;1684;50.748;6.154;2023-02-08T13:49:43;6.03;;;2.63;;
3341;SDS011;1684;50.748;6.154;2023-02-08T14:01:01;10.50;;;6.10;;
3341;SDS011;1684;50.748;6.154;2023-02-08T14:03:34;9.70;;;6.63;;
3341;SDS011;1684;50.748;6.154;2023-02-08T14:06:03;9.00;;;5.27;;
3341;SDS011;1684;50.748;6.154;2023-02-08T14:08:35;13.57;;;7.80;;
3341;SDS011;1684;50.748;6.154;2023-02-08T14:11:10;5.50;;;3.00;;
3341;SDS011;1684;50.748;6.154;2023-02-08T14:13:44;6.70;;;5.07;;
3341;SDS011;1684;50.748;6.154;2023-02-08T14:16:26;11.40;;;6.00;;
3341;SDS011;1684;50.748;6.154;2023-02-08T14:18:57;7.80;;;4.43;;
3341;SDS011;1684;50.748;6.154;2023-02-08T14:21:30;11.40;;;6.10;;
3341;SDS011;1684;50.748;6.154;2023-02-08T14:24:00;7.50;;;4.90;;
3341;SDS011;1684;50.748;6.154;2023-02-08T14:26:28;8.53;;;5.80;;
3341;SDS011;1684;50.748;6.154;2023-02-08T14:28:57;9.90;;;5.97;;
3341;SDS011;1684;50.748;6.154;2023-02-08T14:31:40;9.57;;;5.50;;
3341;SDS011;1684;50.748;6.154;2023-02-08T14:34:21;9.97;;;6.07;;
3341;SDS011;1684;50.748;6.154;2023-02-08T14:36:57;10.80;;;7.07;;
3341;SDS011;1684;50.748;6.154;2023-02-08T14:39:26;11.10;;;5.77;;
3341;SDS011;1684;50.748;6.154;2023-02-08T14:41:55;9.20;;;5.23;;
3341;SDS011;1684;50.748;6.154;2023-02-08T14:50:11;6.30;;;4.20;;
3341;SDS011;1684;50.748;6.154;2023-02-08T14:52:48;8.63;;;4.33;;
3341;SDS011;1684;50.748;6.154;2023-02-08T14:55:18;7.83;;;3.90;;
3341;SDS011;1684;50.748;6.154;2023-02-08T14:57:52;7.93;;;4.57;;
3341;SDS011;1684;50.748;6.154;2023-02-08T15:00:22;9.87;;;4.30;;
3341;SDS011;1684;50.748;6.154;2023-02-08T15:02:51;6.80;;;4.20;;
3341;SDS011;1684;50.748;6.154;2023-02-08T15:05:22;9.10;;;4.97;;
3341;SDS011;1684;50.748;6.154;2023-02-08T15:07:52;8.07;;;4.23;;
3341;SDS011;1684;50.748;6.154;2023-02-08T15:10:21;8.33;;;5.00;;
3341;SDS011;1684;50.748;6.154;2023-02-08T15:12:51;6.40;;;3.63;;
3341;SDS011;1684;50.748;6.154;2023-02-08T15:15:22;6.63;;;4.10;;
3341;SDS011;1684;50.748;6.154;2023-02-08T15:17:51;6.40;;;3.97;;
3341;SDS011;1684;50.748;6.154;2023-02-08T15:20:24;4.50;;;3.00;;
3341;SDS011;1684;50.748;6.154;2023-02-08T15:22:59;5.40;;;3.63;;
3341;SDS011;1684;50.748;6.154;2023-02-08T15:25:29;6.57;;;3.97;;
3341;SDS011;1684;50.748;6.154;2023-02-08T15:27:58;5.80;;;3.53;;
3341;SDS011;1684;50.748;6.154;2023-02-08T15:30:28;8.17;;;3.60;;
3341;SDS011;1684;50.748;6.154;2023-02-08T15:32:57;6.13;;;3.60;;
3341;SDS011;1684;50.748;6.154;2023-02-08T15:35:28;5.20;;;3.70;;
3341;SDS011;1684;50.748;6.154;2023-02-08T15:37:58;8.33;;;4.40;;
3341;SDS011;1684;50.748;6.154;2023-02-08T15:40:27;5.10;;;3.60;;
3341;SDS011;1684;50.748;6.154;2023-02-08T15:43:01;6.00;;;3.73;;
3341;SDS011;1684;50.748;6.154;2023-02-08T15:45:36;5.93;;;3.23;;
3341;SDS011;1684;50.748;6.154;2023-02-08T15:48:04;4.97;;;3.10;;
3341;SDS011;1684;50.748;6.154;2023-02-08T15:50:35;8.37;;;3.70;;
3341;SDS011;1684;50.748;6.154;2023-02-08T15:53:05;5.23;;;2.73;;
3341;SDS011;1684;50.748;6.154;2023-02-08T15:55:36;4.33;;;3.33;;
3341;SDS011;1684;50.748;6.154;2023-02-08T15:58:07;8.63;;;4.00;;
3341;SDS011;1684;50.748;6.154;2023-02-08T16:00:36;7.43;;;4.43;;
3341;SDS011;1684;50.748;6.154;2023-02-08T16:03:06;4.53;;;3.53;;